Time;durP1;ratioP1;P1;durP2;ratioP2;P2;SDS_P1;SDS_P2;PMS_P1;PMS_P2;Temp;Humidity;BMP_temperature;BMP_pressure;BME280_temperature;BME280_humidity;BME280_pressure;Samples;Min_cycle;Max_cycle;Signal;HPM_P1;HPM_P2
2022/01/25 00:24:22;;;;;;;70.88;36.13;;;3.40;99.90;;;;;;5025654;28;20037;-76
2022/01/25 00:27:11;;;;;;;75.38;38.78;;;3.40;99.90;;;;;;5045117;28;20037;-75
2022/01/25 00:32:08;;;;;;;82.88;41.33;;;3.40;99.90;;;;;;5045278;28;20037;-75
2022/01/25 00:34:37;;;;;;;75.00;39.08;;;3.40;99.90;;;;;;5043058;28;20497;-74
2022/01/25 00:37:04;;;;;;;65.93;36.25;;;3.50;99.90;;;;;;5043903;28;20484;-76
2022/01/25 00:39:32;;;;;;;69.07;35.30;;;3.40;99.90;;;;;;5047818;28;20053;-78
2022/01/25 00:42:00;;;;;;;68.88;34.88;;;3.40;99.90;;;;;;5045475;28;20041;-75
2022/01/25 00:44:34;;;;;;;64.40;33.38;;;3.40;99.90;;;;;;5045333;28;20060;-76
2022/01/25 00:47:05;;;;;;;66.35;34.53;;;3.40;99.90;;;;;;5025603;28;20060;-75
2022/01/25 00:49:37;;;;;;;69.55;34.38;;;3.40;99.90;;;;;;5026747;28;20048;-76
2022/01/25 00:53:54;;;;;;;71.30;34.85;;;3.40;99.90;;;;;;5044350;28;20048;-75
2022/01/25 00:55:14;;;;;;;72.95;37.58;;;3.40;99.90;;;;;;5038521;28;20285;-76
2022/01/25 00:57:42;;;;;;;79.30;37.63;;;3.40;99.90;;;;;;5027081;28;20068;-76
2022/01/25 01:00:12;;;;;;;68.72;34.92;;;3.40;99.90;;;;;;5029559;28;20049;-75
2022/01/25 01:02:40;;;;;;;70.80;36.00;;;3.40;99.90;;;;;;5027303;28;20044;-75
2022/01/25 01:05:08;;;;;;;69.68;37.97;;;3.50;99.90;;;;;;5039407;28;20516;-76
2022/01/25 01:07:36;;;;;;;74.07;34.33;;;3.50;99.90;;;;;;5049214;28;20386;-76
2022/01/25 01:10:04;;;;;;;71.35;33.38;;;3.50;99.90;;;;;;5050259;28;20061;-76
2022/01/25 01:15:20;;;;;;;69.78;33.17;;;3.50;99.90;;;;;;5026139;28;20056;-76
2022/01/25 01:31:57;;;;;;;65.68;34.40;;;3.50;99.90;;;;;;5046637;28;20037;-77
2022/01/25 01:48:04;;;;;;;76.53;35.38;;;3.50;99.90;;;;;;5044265;28;20060;-75
2022/01/25 01:50:29;;;;;;;68.22;35.50;;;3.50;99.90;;;;;;5044275;28;20061;-76
2022/01/25 01:52:58;;;;;;;68.88;35.03;;;3.50;99.90;;;;;;5047384;28;20529;-75
2022/01/25 01:55:27;;;;;;;70.13;35.33;;;3.60;99.90;;;;;;5053721;28;20053;-76
2022/01/25 01:57:57;;;;;;;75.47;37.83;;;3.50;99.90;;;;;;5029324;28;20050;-75
2022/01/25 02:00:41;;;;;;;75.55;39.42;;;3.50;99.90;;;;;;5040921;28;20045;-76
2022/01/25 02:03:09;;;;;;;82.13;40.63;;;3.50;99.90;;;;;;5047269;28;20402;-76
2022/01/25 02:05:38;;;;;;;82.63;41.70;;;3.50;99.90;;;;;;5017338;28;20036;-75
2022/01/25 02:08:06;;;;;;;77.07;38.42;;;3.50;99.90;;;;;;5026864;28;20053;-75
2022/01/25 02:10:34;;;;;;;77.53;38.35;;;3.50;99.90;;;;;;5045253;28;20045;-75
2022/01/25 02:13:08;;;;;;;70.60;36.47;;;3.50;99.90;;;;;;5044108;28;20048;-78
2022/01/25 02:15:37;;;;;;;71.82;37.08;;;3.50;99.90;;;;;;5037666;28;20056;-75
2022/01/25 02:23:41;;;;;;;70.60;36.83;;;3.50;99.90;;;;;;5042689;28;20033;-75
2022/01/25 02:26:11;;;;;;;72.22;36.45;;;3.50;99.90;;;;;;5058378;28;20056;-76
2022/01/25 02:28:42;;;;;;;67.35;35.40;;;3.50;99.90;;;;;;5049052;28;20041;-76
2022/01/25 02:31:13;;;;;;;71.93;35.97;;;3.50;99.90;;;;;;5035546;28;20053;-76
2022/01/25 02:33:42;;;;;;;71.53;36.38;;;3.50;99.90;;;;;;5038163;28;20040;-76
2022/01/25 02:36:13;;;;;;;76.55;37.25;;;3.50;99.90;;;;;;5041888;28;20497;-75
2022/01/25 02:38:41;;;;;;;72.18;37.67;;;3.50;99.90;;;;;;5048096;28;20072;-75
2022/01/25 02:41:10;;;;;;;74.97;37.92;;;3.40;99.90;;;;;;5045220;28;20621;-75
2022/01/25 02:43:38;;;;;;;74.72;38.20;;;3.50;99.90;;;;;;5029500;28;20053;-77
2022/01/25 02:48:54;;;;;;;74.95;38.92;;;3.50;99.90;;;;;;5040540;28;20497;-74
2022/01/25 02:51:31;;;;;;;80.28;39.22;;;3.50;99.90;;;;;;5052259;28;20049;-74
2022/01/25 02:54:00;;;;;;;81.35;39.42;;;3.50;99.90;;;;;;5035611;28;20045;-75
2022/01/25 02:56:29;;;;;;;79.50;39.20;;;3.50;99.90;;;;;;5049129;28;20060;-74
2022/01/25 02:58:57;;;;;;;86.22;40.47;;;3.50;99.90;;;;;;5052854;28;20045;-75
2022/01/25 03:01:25;;;;;;;78.07;38.10;;;3.50;99.90;;;;;;5055215;28;20072;-75
2022/01/25 03:03:53;;;;;;;72.60;38.25;;;3.50;99.90;;;;;;5032865;28;20064;-74
2022/01/25 03:06:23;;;;;;;71.13;37.60;;;3.50;99.90;;;;;;5043507;28;20037;-74
2022/01/25 03:08:51;;;;;;;75.40;39.53;;;3.50;99.90;;;;;;5065214;28;20048;-74
2022/01/25 03:11:22;;;;;;;76.05;39.90;;;3.60;99.90;;;;;;5065330;28;20053;-75
2022/01/25 03:13:55;;;;;;;68.13;36.42;;;3.50;99.90;;;;;;5050033;28;20056;-74
2022/01/25 03:19:01;;;;;;;76.78;38.17;;;3.60;99.90;;;;;;5047544;28;20391;-73
2022/01/25 03:23:58;;;;;;;73.53;37.53;;;3.50;99.90;;;;;;5028979;28;20052;-74
2022/01/25 03:26:26;;;;;;;79.57;38.70;;;3.60;99.90;;;;;;5028778;28;20089;-75
2022/01/25 03:28:55;;;;;;;78.05;39.67;;;3.50;99.90;;;;;;5044383;28;20485;-74
2022/01/25 03:31:24;;;;;;;72.55;37.58;;;3.50;99.90;;;;;;5039676;28;20696;-74
2022/01/25 03:33:51;;;;;;;74.70;38.33;;;3.50;99.90;;;;;;5013625;28;20041;-74
2022/01/25 03:36:19;;;;;;;70.93;37.20;;;3.40;99.90;;;;;;5029330;28;20053;-73
2022/01/25 03:38:47;;;;;;;69.32;36.17;;;3.40;99.90;;;;;;5030256;28;20049;-73
2022/01/25 03:41:16;;;;;;;70.57;35.15;;;3.40;99.90;;;;;;5029513;28;20046;-75
2022/01/25 03:43:51;;;;;;;69.25;35.95;;;3.40;99.90;;;;;;5029911;28;20489;-74
2022/01/25 03:51:54;;;;;;;73.25;38.05;;;3.40;99.90;;;;;;5046495;28;20049;-74
2022/01/25 03:54:22;;;;;;;75.75;37.33;;;3.40;99.90;;;;;;5031284;28;20489;-74
2022/01/25 03:56:50;;;;;;;77.35;37.40;;;3.40;99.90;;;;;;5031613;28;20418;-74
2022/01/25 03:59:18;;;;;;;76.38;37.92;;;3.40;99.90;;;;;;5031550;28;20041;-75
2022/01/25 04:01:46;;;;;;;69.50;37.50;;;3.40;99.90;;;;;;5034010;28;20061;-74
2022/01/25 04:04:17;;;;;;;;;;;3.40;99.90;;;;;;5026855;28;20049;-73
2022/01/25 04:06:49;;;;;;;72.03;34.63;;;3.40;99.90;;;;;;5040390;28;20385;-74
2022/01/25 04:09:17;;;;;;;74.10;37.15;;;3.40;99.90;;;;;;5015414;28;20046;-75
2022/01/25 04:11:45;;;;;;;76.53;38.90;;;3.40;99.90;;;;;;5048108;28;20041;-75
2022/01/25 04:14:13;;;;;;;74.43;37.80;;;3.30;99.90;;;;;;5030343;28;20048;-75
2022/01/25 04:19:31;;;;;;;79.97;39.22;;;3.40;99.90;;;;;;5048241;28;20381;-75
2022/01/25 04:27:28;;;;;;;76.38;38.78;;;3.40;99.90;;;;;;5048456;28;20052;-74
2022/01/25 04:29:55;;;;;;;;;;;3.40;99.90;;;;;;5059693;28;20050;-74
2022/01/25 04:32:35;;;;;;;81.68;38.65;;;3.40;99.90;;;;;;5012205;28;19925;-74
2022/01/25 04:35:26;;;;;;;74.82;36.78;;;3.40;99.90;;;;;;5035938;28;20057;-75
2022/01/25 04:59:39;;;;;;;71.18;36.38;;;3.40;99.90;;;;;;5061902;28;20075;-75
2022/01/25 05:02:32;;;;;;;76.93;38.20;;;3.40;99.90;;;;;;5045744;28;20045;-73
2022/01/25 05:05:10;;;;;;;80.47;39.08;;;3.40;99.90;;;;;;5062992;28;20154;-74
2022/01/25 05:10:09;;;;;;;71.95;36.25;;;3.40;99.90;;;;;;5046882;28;20051;-76
2022/01/25 05:12:46;;;;;;;73.78;36.88;;;3.50;99.90;;;;;;5041433;28;20087;-76
2022/01/25 05:23:26;;;;;;;75.93;37.95;;;3.40;99.90;;;;;;5048094;28;20053;-75
2022/01/25 05:25:53;;;;;;;75.70;36.95;;;3.50;99.90;;;;;;5041669;28;20053;-76
2022/01/25 05:28:21;;;;;;;74.95;36.63;;;3.40;99.90;;;;;;5026727;28;20046;-76
2022/01/25 05:30:50;;;;;;;75.38;38.00;;;3.30;99.90;;;;;;5025317;28;20060;-76
2022/01/25 05:33:18;;;;;;;77.72;38.88;;;3.50;99.90;;;;;;5015001;28;20532;-76
2022/01/25 05:35:46;;;;;;;75.75;38.60;;;3.30;99.90;;;;;;5050734;28;20064;-77
2022/01/25 05:38:14;;;;;;;76.32;38.38;;;3.20;99.90;;;;;;5049477;28;20049;-76
2022/01/25 05:46:02;;;;;;;78.53;39.25;;;3.40;99.90;;;;;;5067221;28;20044;-75
2022/01/25 05:48:31;;;;;;;76.30;37.50;;;3.40;99.90;;;;;;5048751;28;20730;-75
2022/01/25 05:50:59;;;;;;;74.75;38.15;;;3.40;99.90;;;;;;5062363;28;20049;-75
2022/01/25 05:53:27;;;;;;;;;;;3.30;99.90;;;;;;5061021;28;20052;-74
2022/01/25 05:55:55;;;;;;;72.05;35.75;;;3.30;99.90;;;;;;5044882;28;19924;-74
2022/01/25 05:58:23;;;;;;;78.93;38.83;;;3.30;99.90;;;;;;5044539;28;20052;-73
2022/01/25 06:00:51;;;;;;;81.40;38.97;;;3.30;99.90;;;;;;5027375;28;20057;-76
2022/01/25 06:03:19;;;;;;;;;;;3.30;99.90;;;;;;5027581;28;20050;-76
2022/01/25 06:05:47;;;;;;;76.90;36.70;;;3.30;99.90;;;;;;5043948;28;19953;-75
2022/01/25 06:08:14;;;;;;;81.57;38.42;;;3.40;99.90;;;;;;5060267;28;20594;-76
2022/01/25 06:10:42;;;;;;;78.00;38.15;;;3.30;99.90;;;;;;5045044;28;20479;-75
2022/01/25 06:13:10;;;;;;;76.93;38.95;;;3.30;99.90;;;;;;5045221;28;20550;-76
2022/01/25 06:15:37;;;;;;;82.15;39.42;;;3.30;99.90;;;;;;5044237;28;20045;-75
2022/01/25 06:18:05;;;;;;;76.78;39.85;;;3.40;99.90;;;;;;5044435;28;20045;-74
2022/01/25 06:20:33;;;;;;;83.63;40.88;;;3.30;99.90;;;;;;5060144;28;20059;-74
2022/01/25 06:23:01;;;;;;;78.63;39.20;;;3.30;99.90;;;;;;5059861;28;20055;-75
2022/01/25 06:25:29;;;;;;;76.80;39.30;;;3.30;99.90;;;;;;5045168;28;20053;-75
2022/01/25 06:27:57;;;;;;;78.72;40.70;;;3.30;99.90;;;;;;5044024;28;20614;-73
2022/01/25 06:30:24;;;;;;;76.10;37.67;;;3.30;99.90;;;;;;5044521;28;20037;-74
2022/01/25 06:32:52;;;;;;;79.45;38.92;;;3.30;99.90;;;;;;5059797;28;20049;-74
2022/01/25 06:35:19;;;;;;;78.82;37.95;;;3.30;99.90;;;;;;5023296;28;20493;-73
2022/01/25 06:37:47;;;;;;;78.28;38.58;;;3.30;99.90;;;;;;5042020;28;20048;-74
2022/01/25 06:40:16;;;;;;;82.75;38.83;;;3.30;99.90;;;;;;5044485;28;20049;-76
2022/01/25 06:42:44;;;;;;;82.13;39.40;;;3.30;99.90;;;;;;5043816;28;20052;-74
2022/01/25 06:45:16;;;;;;;;;;;3.30;99.90;;;;;;5044584;28;20060;-74
2022/01/25 06:47:46;;;;;;;83.63;37.70;;;3.30;99.90;;;;;;5042065;28;20419;-76
2022/01/25 06:50:15;;;;;;;79.47;38.50;;;3.30;99.90;;;;;;5034186;28;20045;-75
2022/01/25 06:52:44;;;;;;;79.97;38.83;;;3.30;99.90;;;;;;5043996;28;20076;-74
2022/01/25 06:55:20;;;;;;;76.35;38.17;;;3.30;99.90;;;;;;5032278;28;20041;-76
2022/01/25 06:57:49;;;;;;;78.90;38.75;;;3.30;99.90;;;;;;5044000;28;20052;-74
2022/01/25 07:00:20;;;;;;;80.20;39.95;;;3.30;99.90;;;;;;5044822;28;20049;-76
2022/01/25 07:02:49;;;;;;;79.95;37.85;;;3.30;99.90;;;;;;5043468;28;20049;-74
2022/01/25 07:05:17;;;;;;;84.82;40.03;;;3.30;99.90;;;;;;5026701;28;20507;-74
2022/01/25 07:07:47;;;;;;;;;;;3.30;99.90;;;;;;5044299;28;20049;-75
2022/01/25 07:10:15;;;;;;;75.13;36.15;;;3.30;99.90;;;;;;5027854;28;20503;-76
2022/01/25 07:12:43;;;;;;;;;;;3.30;99.90;;;;;;5048420;28;20405;-75
2022/01/25 07:15:13;;;;;;;;;;;3.20;99.90;;;;;;5044304;28;20305;-76
2022/01/25 07:17:41;;;;;;;78.78;36.63;;;3.20;99.90;;;;;;5029720;28;19924;-76
2022/01/25 07:20:10;;;;;;;77.57;37.47;;;3.20;99.90;;;;;;5044072;28;20128;-75
2022/01/25 07:22:39;;;;;;;75.78;34.42;;;3.20;99.90;;;;;;5010825;28;20057;-75
2022/01/25 07:25:09;;;;;;;75.95;36.83;;;3.20;99.90;;;;;;5027776;28;20084;-75
2022/01/25 07:27:37;;;;;;;74.70;36.80;;;3.20;99.90;;;;;;5042578;28;20058;-75
2022/01/25 07:30:06;;;;;;;74.85;36.72;;;3.20;99.90;;;;;;5030459;28;20046;-75
2022/01/25 07:32:34;;;;;;;77.93;38.30;;;3.20;99.90;;;;;;5061339;28;20059;-76
2022/01/25 07:35:07;;;;;;;81.35;38.42;;;3.20;99.90;;;;;;5040141;28;20049;-75
2022/01/25 07:37:41;;;;;;;75.82;36.47;;;3.20;99.90;;;;;;5034556;28;20052;-76
2022/01/25 07:40:13;;;;;;;75.07;36.22;;;3.20;99.90;;;;;;5035960;28;20045;-75
2022/01/25 07:42:45;;;;;;;69.38;35.42;;;3.20;99.90;;;;;;5042338;28;20423;-74
2022/01/25 07:45:17;;;;;;;81.63;38.30;;;3.10;99.90;;;;;;5041420;28;20484;-74
2022/01/25 07:47:47;;;;;;;77.68;38.10;;;3.10;99.90;;;;;;5043698;28;20045;-75
2022/01/25 07:50:15;;;;;;;79.65;36.83;;;3.20;99.90;;;;;;5044785;28;20060;-76
2022/01/25 07:52:43;;;;;;;81.30;38.20;;;3.10;99.90;;;;;;5045487;28;20056;-76
2022/01/25 07:55:11;;;;;;;81.28;38.72;;;3.10;99.90;;;;;;5045323;28;20607;-75
2022/01/25 07:57:39;;;;;;;80.93;40.55;;;3.10;99.90;;;;;;5042583;28;20059;-75
2022/01/25 08:00:07;;;;;;;;;;;3.10;99.90;;;;;;5044316;28;20554;-75
2022/01/25 08:02:41;;;;;;;78.28;35.10;;;3.10;99.90;;;;;;5045584;28;20266;-74
2022/01/25 08:05:21;;;;;;;78.22;36.53;;;3.10;99.90;;;;;;5044403;28;20045;-75
2022/01/25 08:07:56;;;;;;;83.47;36.95;;;3.10;99.90;;;;;;5046631;28;20072;-75
2022/01/25 08:10:45;;;;;;;76.40;37.83;;;3.10;99.90;;;;;;5047134;28;20040;-75
2022/01/25 08:13:23;;;;;;;77.20;37.10;;;3.20;99.90;;;;;;5045195;28;20052;-76
2022/01/25 08:15:55;;;;;;;76.55;37.47;;;3.10;99.90;;;;;;5044875;28;20037;-75
2022/01/25 08:18:29;;;;;;;77.25;36.75;;;3.10;99.90;;;;;;5038298;28;20060;-75
2022/01/25 08:20:56;;;;;;;;;;;3.10;99.90;;;;;;5027781;28;20060;-76
2022/01/25 08:23:25;;;;;;;75.20;34.33;;;3.10;99.90;;;;;;5044935;28;19936;-75
2022/01/25 08:25:58;;;;;;;71.70;33.97;;;3.10;99.90;;;;;;5044936;28;20052;-75
2022/01/25 08:28:30;;;;;;;76.93;37.20;;;3.00;99.90;;;;;;5046038;28;20060;-74
2022/01/25 08:30:59;;;;;;;77.85;36.63;;;3.10;99.90;;;;;;5045373;28;20401;-74
2022/01/25 08:33:31;;;;;;;80.05;36.92;;;3.10;99.90;;;;;;5046639;28;20056;-75
2022/01/25 08:36:24;;;;;;;78.68;37.17;;;3.00;99.90;;;;;;5045724;28;20056;-74
2022/01/25 08:38:53;;;;;;;75.80;36.78;;;3.00;99.90;;;;;;5045538;28;20056;-75
2022/01/25 08:41:25;;;;;;;77.07;36.05;;;3.10;99.90;;;;;;5041298;28;20060;-74
2022/01/25 08:44:02;;;;;;;77.93;36.53;;;3.10;99.90;;;;;;5042200;28;20053;-74
2022/01/25 08:46:33;;;;;;;77.43;36.55;;;3.10;99.90;;;;;;5026395;28;20050;-74
2022/01/25 08:49:05;;;;;;;75.75;36.45;;;3.10;99.90;;;;;;5039526;28;20076;-74
2022/01/25 08:51:37;;;;;;;79.18;37.05;;;3.20;99.90;;;;;;5043036;28;20033;-78
2022/01/25 08:54:06;;;;;;;76.07;35.00;;;3.20;99.90;;;;;;5042472;28;20497;-77
2022/01/25 08:56:41;;;;;;;75.85;35.78;;;3.10;99.90;;;;;;5044300;28;20041;-77
2022/01/25 08:59:19;;;;;;;;;;;3.10;99.90;;;;;;5038735;28;20060;-76
2022/01/25 09:01:47;;;;;;;72.95;34.67;;;3.10;99.90;;;;;;5033793;28;19924;-79
2022/01/25 09:04:16;;;;;;;70.82;35.33;;;3.10;99.90;;;;;;5040615;28;20053;-77
2022/01/25 09:06:44;;;;;;;80.13;37.75;;;3.10;99.90;;;;;;5030752;28;20045;-76
2022/01/25 09:09:12;;;;;;;81.00;35.70;;;3.10;99.90;;;;;;5041021;28;20912;-78
2022/01/25 09:11:41;;;;;;;78.35;37.22;;;3.20;99.90;;;;;;5043509;28;20056;-77
2022/01/25 09:14:10;;;;;;;76.60;37.42;;;3.30;99.90;;;;;;5021561;28;20063;-77
2022/01/25 09:16:39;;;;;;;82.18;37.63;;;3.20;99.90;;;;;;5044292;28;20060;-80
2022/01/25 09:19:08;;;;;;;73.65;35.03;;;3.20;99.90;;;;;;5044330;28;20052;-78
2022/01/25 09:21:36;;;;;;;75.35;37.35;;;3.20;99.90;;;;;;5045388;28;20052;-75
2022/01/25 09:24:04;;;;;;;;;;;3.20;99.90;;;;;;5046448;28;20053;-78
2022/01/25 09:26:31;;;;;;;70.65;33.88;;;3.20;99.90;;;;;;5060795;28;19925;-76
2022/01/25 09:28:59;;;;;;;77.60;35.40;;;3.20;99.90;;;;;;5043703;28;20053;-77
2022/01/25 09:31:27;;;;;;;121.30;40.42;;;3.20;99.90;;;;;;5045366;28;20441;-78
2022/01/25 09:33:56;;;;;;;74.07;34.92;;;3.20;99.90;;;;;;5045873;28;20041;-79
2022/01/25 09:36:25;;;;;;;75.07;35.97;;;3.20;99.90;;;;;;5045714;28;20057;-78
2022/01/25 09:38:54;;;;;;;74.93;36.67;;;3.20;99.90;;;;;;5045887;28;20052;-78
2022/01/25 09:41:23;;;;;;;70.97;34.38;;;3.20;99.90;;;;;;5034185;28;20087;-79
2022/01/25 09:43:51;;;;;;;71.68;35.88;;;3.30;99.90;;;;;;5044344;28;20063;-77
2022/01/25 09:46:19;;;;;;;70.82;35.15;;;3.40;99.90;;;;;;5045513;28;20057;-80
2022/01/25 09:48:48;;;;;;;;;;;3.30;99.90;;;;;;5045794;28;20052;-81
2022/01/25 09:51:18;;;;;;;73.07;33.72;;;3.30;99.90;;;;;;5022665;28;19968;-82
2022/01/25 09:53:47;;;;;;;75.95;36.45;;;3.20;99.90;;;;;;5019234;28;20053;-81
2022/01/25 09:56:14;;;;;;;73.80;36.15;;;3.30;99.90;;;;;;5045649;28;20089;-79
2022/01/25 09:58:44;;;;;;;81.10;37.13;;;3.30;99.90;;;;;;5044564;28;20063;-78
2022/01/25 10:01:12;;;;;;;70.30;33.70;;;3.30;99.90;;;;;;5033050;28;20051;-80
2022/01/25 10:03:42;;;;;;;80.57;37.35;;;3.30;99.90;;;;;;5041022;28;20063;-80
2022/01/25 10:06:17;;;;;;;78.60;36.28;;;3.30;99.90;;;;;;5047310;28;20052;-82
2022/01/25 10:08:45;;;;;;;81.75;37.08;;;3.30;99.90;;;;;;5064949;28;20056;-82
2022/01/25 10:11:15;;;;;;;81.72;39.30;;;3.30;99.90;;;;;;5042686;28;20056;-80
2022/01/25 10:13:50;;;;;;;74.38;35.88;;;3.40;99.90;;;;;;5043335;28;20048;-80
2022/01/25 10:16:20;;;;;;;78.75;36.33;;;3.40;99.90;;;;;;5044502;28;20049;-81
2022/01/25 10:18:54;;;;;;;72.40;35.50;;;3.40;99.90;;;;;;5043182;28;20076;-80
2022/01/25 10:21:29;;;;;;;73.10;36.08;;;3.40;99.90;;;;;;5028567;28;20883;-82
2022/01/25 10:24:03;;;;;;;73.43;36.53;;;3.40;99.90;;;;;;5027011;28;20075;-80
2022/01/25 10:26:46;;;;;;;86.32;38.30;;;3.40;99.90;;;;;;5041814;28;20034;-82
2022/01/25 10:29:26;;;;;;;86.10;38.05;;;3.40;99.90;;;;;;5026360;28;20513;-81
2022/01/25 10:31:58;;;;;;;83.70;40.00;;;3.40;99.90;;;;;;5028380;28;20496;-83
2022/01/25 10:34:46;;;;;;;85.18;39.47;;;3.50;99.90;;;;;;5038055;28;20427;-83
2022/01/25 10:37:22;;;;;;;82.72;38.33;;;3.50;99.90;;;;;;5013729;28;20461;-85
2022/01/25 10:39:52;;;;;;;84.15;37.97;;;3.50;99.90;;;;;;5033679;28;20038;-78
2022/01/25 10:42:26;;;;;;;76.70;37.35;;;3.50;99.90;;;;;;5033866;28;20053;-78
2022/01/25 10:45:16;;;;;;;78.97;37.50;;;3.50;99.90;;;;;;5029994;28;20504;-78
2022/01/25 10:47:50;;;;;;;74.22;36.38;;;3.50;99.90;;;;;;5029553;28;20501;-80
2022/01/25 10:50:26;;;;;;;73.90;36.70;;;3.50;99.90;;;;;;5023678;28;20641;-79
2022/01/25 10:53:11;;;;;;;77.53;37.70;;;3.50;99.90;;;;;;5052524;28;20049;-78
2022/01/25 10:55:47;;;;;;;77.32;37.20;;;3.50;99.90;;;;;;5048368;28;20056;-82
2022/01/25 10:58:16;;;;;;;78.03;38.05;;;3.50;99.90;;;;;;5032944;28;20066;-81
2022/01/25 11:00:47;;;;;;;81.55;39.22;;;3.50;99.90;;;;;;5035332;28;20049;-81
2022/01/25 11:03:39;;;;;;;78.57;38.58;;;3.50;99.90;;;;;;5050549;28;20116;-81
2022/01/25 11:06:09;;;;;;;81.70;38.10;;;3.50;99.90;;;;;;5028421;28;20064;-81
2022/01/25 11:08:39;;;;;;;84.35;38.88;;;3.50;99.90;;;;;;5032099;28;20053;-82
2022/01/25 11:11:10;;;;;;;83.40;37.88;;;3.60;99.90;;;;;;5047959;28;20045;-81
2022/01/25 11:13:42;;;;;;;75.47;36.70;;;3.50;99.90;;;;;;5029808;28;20076;-81
2022/01/25 11:16:12;;;;;;;83.00;37.95;;;3.60;99.90;;;;;;5038322;28;20041;-81
2022/01/25 11:18:41;;;;;;;73.03;36.00;;;3.50;99.90;;;;;;5047362;28;20808;-79
2022/01/25 11:21:10;;;;;;;76.25;36.92;;;3.60;99.90;;;;;;5048124;28;20040;-79
2022/01/25 11:23:42;;;;;;;77.07;35.85;;;3.50;99.90;;;;;;5042138;28;20052;-77
2022/01/25 11:26:13;;;;;;;73.93;35.38;;;3.50;99.90;;;;;;5019785;28;20426;-77
2022/01/25 11:28:42;;;;;;;68.53;34.63;;;3.60;99.90;;;;;;5026433;28;20072;-77
2022/01/25 11:31:18;;;;;;;72.80;35.42;;;3.50;99.90;;;;;;5028783;28;20060;-77
2022/01/25 11:33:49;;;;;;;72.47;36.35;;;3.50;99.90;;;;;;5045292;28;20057;-76
2022/01/25 11:36:17;;;;;;;70.13;34.60;;;3.50;99.90;;;;;;5033331;28;20525;-76
2022/01/25 11:38:51;;;;;;;78.50;35.22;;;3.70;99.90;;;;;;5030275;28;20061;-77
2022/01/25 11:41:24;;;;;;;81.40;37.45;;;3.50;99.90;;;;;;5042727;28;20033;-76
2022/01/25 11:44:05;;;;;;;71.78;34.45;;;3.50;99.90;;;;;;5028496;28;20414;-78
2022/01/25 11:46:35;;;;;;;73.45;36.20;;;3.50;99.90;;;;;;5028855;28;20413;-76
2022/01/25 11:49:10;;;;;;;72.60;34.20;;;3.50;99.90;;;;;;5043917;28;20547;-76
2022/01/25 11:51:38;;;;;;;74.68;35.58;;;3.50;99.90;;;;;;5012511;28;20848;-76
2022/01/25 11:54:08;;;;;;;77.72;36.72;;;3.50;99.90;;;;;;5045013;28;20041;-76
2022/01/25 11:56:37;;;;;;;69.93;34.10;;;3.50;99.90;;;;;;5038871;28;20045;-76
2022/01/25 11:59:06;;;;;;;77.75;35.58;;;3.50;99.90;;;;;;5045246;28;20049;-77
2022/01/25 12:01:34;;;;;;;;;;;3.40;99.90;;;;;;5041720;28;20038;-76
2022/01/25 12:04:09;;;;;;;73.63;35.08;;;3.50;99.90;;;;;;5011613;28;19925;-77
2022/01/25 12:06:43;;;;;;;75.65;36.40;;;3.50;99.90;;;;;;5034169;28;20730;-77
2022/01/25 12:11:58;;;;;;;76.45;35.88;;;3.50;99.90;;;;;;5034811;28;20064;-77
2022/01/25 12:14:27;;;;;;;77.93;36.58;;;3.60;99.90;;;;;;5044727;28;20351;-75
2022/01/25 12:17:04;;;;;;;75.90;36.88;;;3.60;99.90;;;;;;5023250;28;20492;-75
2022/01/25 12:19:47;;;;;;;83.20;37.88;;;3.60;99.90;;;;;;5045967;28;20331;-76
2022/01/25 12:22:38;;;;;;;80.03;37.65;;;3.60;99.90;;;;;;5046262;28;20427;-77
2022/01/25 12:25:38;;;;;;;85.82;37.53;;;3.70;99.90;;;;;;5031389;28;20468;-76
2022/01/25 12:28:20;;;;;;;82.20;37.80;;;3.70;99.90;;;;;;5028010;28;20037;-78
2022/01/25 12:30:48;;;;;;;80.57;38.33;;;3.70;99.90;;;;;;5046418;28;20057;-76
2022/01/25 12:33:29;;;;;;;81.07;38.70;;;3.70;99.90;;;;;;5048793;28;20056;-77
2022/01/25 12:36:00;;;;;;;85.95;38.80;;;3.70;99.90;;;;;;5047251;28;20052;-77
2022/01/25 12:38:42;;;;;;;79.22;36.92;;;3.70;99.90;;;;;;5048053;28;20294;-77
2022/01/25 12:41:20;;;;;;;84.35;38.08;;;3.70;99.90;;;;;;5046585;28;20045;-77
2022/01/25 12:43:57;;;;;;;81.22;37.92;;;3.60;99.90;;;;;;5055408;28;20045;-77
2022/01/25 12:46:25;;;;;;;80.57;38.03;;;3.70;99.90;;;;;;5047184;28;20511;-76
2022/01/25 12:48:56;;;;;;;82.93;38.40;;;3.70;99.90;;;;;;5046606;28;20052;-77
2022/01/25 12:51:30;;;;;;;81.20;38.45;;;3.70;99.90;;;;;;5048795;28;20036;-77
2022/01/25 12:54:02;;;;;;;83.70;39.00;;;3.90;99.90;;;;;;5059118;28;20048;-78
2022/01/25 12:56:36;;;;;;;88.25;40.33;;;3.70;99.90;;;;;;5047681;28;20057;-77
2022/01/25 12:59:07;;;;;;;80.15;37.50;;;3.70;99.90;;;;;;5025148;28;20045;-77
2022/01/25 13:01:38;;;;;;;82.68;38.88;;;3.70;99.90;;;;;;5044588;28;20526;-77
2022/01/25 13:04:07;;;;;;;87.38;40.17;;;3.70;99.90;;;;;;5046054;28;20064;-76
2022/01/25 13:06:41;;;;;;;85.95;39.42;;;3.70;99.90;;;;;;5030939;28;20041;-77
2022/01/25 13:09:16;;;;;;;75.93;35.67;;;3.70;99.90;;;;;;5035291;28;20045;-76
2022/01/25 13:17:17;;;;;;;85.88;39.00;;;3.70;99.90;;;;;;5048299;28;20056;-77
2022/01/25 13:19:51;;;;;;;84.80;37.97;;;3.70;99.90;;;;;;5047011;28;20045;-77
2022/01/25 13:22:30;;;;;;;75.90;36.13;;;3.70;99.90;;;;;;5047474;28;20048;-77
2022/01/25 13:25:27;;;;;;;79.97;36.95;;;3.70;99.90;;;;;;5029117;28;20065;-77
2022/01/25 13:27:59;;;;;;;79.93;36.55;;;3.70;99.90;;;;;;5025185;28;20049;-78
2022/01/25 13:30:45;;;;;;;88.20;39.45;;;3.80;99.90;;;;;;5028747;28;20033;-77
2022/01/25 13:33:21;;;;;;;86.95;39.28;;;3.80;99.90;;;;;;5045084;28;20615;-79
2022/01/25 13:35:53;;;;;;;87.25;39.80;;;3.50;99.90;;;;;;5041870;28;20049;-78
2022/01/25 13:38:24;;;;;;;86.80;38.30;;;3.60;99.90;;;;;;5034540;28;20049;-77
2022/01/25 13:46:42;;;;;;;82.22;37.67;;;3.70;99.90;;;;;;5030041;28;20520;-78
2022/01/25 13:49:15;;;;;;;85.15;38.45;;;3.60;99.90;;;;;;5047305;28;20052;-79
2022/01/25 13:51:50;;;;;;;82.25;38.50;;;3.70;99.90;;;;;;5043523;28;20052;-77
2022/01/25 13:54:27;;;;;;;75.60;36.55;;;3.60;99.90;;;;;;5044146;28;20055;-77
2022/01/25 13:56:56;;;;;;;81.10;38.05;;;3.60;99.90;;;;;;5045460;28;20053;-77
2022/01/25 13:59:25;;;;;;;88.10;39.72;;;3.60;99.90;;;;;;5044019;28;20053;-78
2022/01/25 14:01:53;;;;;;;88.45;40.15;;;3.60;99.90;;;;;;5045168;28;20045;-77
2022/01/25 14:04:26;;;;;;;80.15;38.03;;;3.70;99.90;;;;;;5038567;28;20425;-77
2022/01/25 14:06:57;;;;;;;84.55;38.55;;;3.70;99.90;;;;;;5036084;28;20524;-77
2022/01/25 14:09:35;;;;;;;90.82;41.22;;;3.70;99.90;;;;;;5046785;28;20068;-77
2022/01/25 14:25:47;;;;;;;80.40;38.67;;;3.60;99.90;;;;;;5047011;28;20048;-82
2022/01/25 14:28:20;;;;;;;81.15;38.55;;;3.60;99.90;;;;;;5054636;28;20049;-78
2022/01/25 14:30:58;;;;;;;82.13;37.53;;;3.60;99.90;;;;;;5049476;28;20417;-78
2022/01/25 14:33:31;;;;;;;78.97;37.08;;;3.50;99.90;;;;;;5051824;28;20060;-79
2022/01/25 14:36:04;;;;;;;74.60;36.17;;;3.60;99.90;;;;;;5052859;28;20049;-81
2022/01/25 14:38:34;;;;;;;79.20;35.13;;;3.60;99.90;;;;;;5054577;28;20564;-79
2022/01/25 14:41:06;;;;;;;77.10;36.45;;;3.60;99.90;;;;;;5032603;28;20596;-79
2022/01/25 14:43:50;;;;;;;79.38;36.13;;;3.60;99.90;;;;;;5049531;28;20041;-81
2022/01/25 14:46:35;;;;;;;79.68;36.00;;;3.60;99.90;;;;;;5031025;28;20056;-78
2022/01/25 14:49:27;;;;;;;77.60;35.70;;;3.50;99.90;;;;;;5046457;28;20046;-82
2022/01/25 14:52:04;;;;;;;77.57;35.25;;;3.60;99.90;;;;;;5049106;28;20056;-80
2022/01/25 14:54:36;;;;;;;74.18;33.92;;;3.50;99.90;;;;;;5052288;28;20056;-79
2022/01/25 14:57:08;;;;;;;77.43;33.03;;;3.60;99.90;;;;;;5042397;28;20053;-80
2022/01/25 14:59:46;;;;;;;69.80;32.03;;;3.70;99.90;;;;;;5050201;28;20501;-79
2022/01/25 15:02:23;;;;;;;75.10;33.03;;;3.50;99.90;;;;;;5052499;28;20067;-80
2022/01/25 15:04:57;;;;;;;78.25;34.65;;;3.50;99.90;;;;;;5054746;28;20056;-82
2022/01/25 15:07:30;;;;;;;74.40;34.00;;;3.40;99.90;;;;;;5049076;28;20048;-79
2022/01/25 15:10:04;;;;;;;77.57;34.05;;;3.50;99.90;;;;;;5048677;28;20529;-84
2022/01/25 15:12:41;;;;;;;80.75;34.53;;;3.40;99.90;;;;;;5047455;28;20044;-78
2022/01/25 15:15:15;;;;;;;77.53;32.90;;;3.60;99.90;;;;;;5036791;28;20567;-78
2022/01/25 15:17:43;;;;;;;79.75;35.35;;;3.40;99.90;;;;;;5042121;28;20056;-79
2022/01/25 15:20:14;;;;;;;81.70;34.67;;;3.40;99.90;;;;;;5045022;28;20060;-78
2022/01/25 15:22:44;;;;;;;82.07;34.88;;;3.50;99.90;;;;;;5027620;28;20060;-78
2022/01/25 15:25:20;;;;;;;84.70;35.47;;;3.40;99.90;;;;;;5044594;28;20056;-78
2022/01/25 15:27:51;;;;;;;83.00;36.95;;;3.70;99.90;;;;;;5040988;28;20071;-79
2022/01/25 15:30:19;;;;;;;86.95;36.72;;;3.40;99.90;;;;;;5045116;28;20052;-78
2022/01/25 15:32:49;;;;;;;79.82;33.80;;;3.50;99.90;;;;;;5059326;28;20060;-79